Tiempo atmosférico en la estación meteorológica de Tineo, Soto de la Barca, Asturias (285 m.)



Fecha
DESCASC
Temp. máxima en grados centígrados (hora)
DESCASC
Temp. mínima en grados centígrados (hora)
DESCASC
Temp. media en grados centígrados
DESCASC
Racha de viento máxima en m/sg (hora)
DESCASC
Velocidad máxima media en intervalos de 10 minutos(hora)
DESCASC
Precipitaciones diarias en mm
DESCASC
Precipitaciones de 00:00 a 06:00 en mm
DESCASC
Precipitaciones de 06:00 a 12:00 en mm
DESCASC
Precipitaciones de 12:00 a 18:00 en mm
DESCASC
Precipitaciones de 18:00 a 24:00 en mm
DESCASC

Gráficas

Temp. máximas Temp. mínimas Temp. medias Precipitaciones Rachas de viento máximas Velocidades máximas media en intervalos de 10 minutos

Datos horarios

Fecha y hora oficial Temperatura (ºC) Velocidad del viento (km/h) Dirección del viento Racha (km/h) Dirección de racha Precipitación (mm) Presión (hPa) Tendencia (hPa) Humedad (%)
2019-06-19 23:00:00 14.8 3 Sur 11 Sudeste 1.4 -- -- 93
2019-06-19 22:00:00 15.9 7 Sudeste 14 Sudeste 0 -- -- 84
2019-06-19 21:00:00 16.2 9 Sudeste 15 Sudeste 0 -- -- 84
2019-06-19 20:00:00 16.8 10 Sudeste 20 Sudeste 0 -- -- 83
2019-06-19 19:00:00 18.5 9 Este 17 Sudeste 0 -- -- 78
2019-06-19 18:00:00 19.9 12 Este 26 Este 0 -- -- 75
2019-06-19 17:00:00 19.8 13 Este 23 Este 0 -- -- 74
2019-06-19 16:00:00 21.5 5 Noroeste 16 Noroeste 0 -- -- 60
2019-06-19 15:00:00 21.7 5 Noroeste 19 Oeste 0 -- -- 56
2019-06-19 14:00:00 20.8 10 Noroeste 25 Noroeste 0 -- -- 58
2019-06-19 13:00:00 18.9 2 Este 9 Este 0 -- -- 78
2019-06-19 12:00:00 17.8 2 Este 4 Este 0 -- -- 83
2019-06-19 11:00:00 16.3 2 Nordeste 4 Este 0 -- -- 91
2019-06-19 10:00:00 15.3 0 Calma 4 Nordeste 0 -- -- 96
2019-06-19 09:00:00 14.7 0 Calma 4 Sudeste 0 -- -- 96
2019-06-19 08:00:00 14.3 2 Este 3 Sudeste 0 -- -- 97
2019-06-19 07:00:00 14 2 Oeste 6 Oeste 0 -- -- 97
2019-06-19 06:00:00 14.1 2 Oeste 9 Noroeste 0 -- -- 96
2019-06-19 05:00:00 14.7 0 Calma 4 Oeste 0 -- -- 96
2019-06-19 04:00:00 14.7 3 Oeste 6 Oeste 0 -- -- 97
2019-06-19 03:00:00 14.8 2 Oeste 5 Noroeste 0 -- -- 97
2019-06-19 02:00:00 14.9 3 Noroeste 5 Este 0 -- -- 97
2019-06-19 01:00:00 14.8 3 Sudeste 7 Sudeste 0 -- -- 96
2019-06-19 00:00:00 15.1 6 Este 10 Sudeste 0.6 -- -- 95
2019-06-18 23:00:00 15.9 6 Sudeste 17 Sudeste 0.8 -- -- 91
2019-06-18 22:00:00 17.7 10 Sudeste 17 Este 0 -- -- 84
2019-06-18 21:00:00 18.9 10 Sudeste 23 Este 0 -- -- 79
2019-06-18 20:00:00 21 5 Nordeste 13 Sur 0 -- -- 70
2019-06-18 19:00:00 23.5 4 Sudoeste 18 Oeste 0 -- -- 51
2019-06-18 18:00:00 24.2 6 Sudoeste 21 Noroeste 0 -- -- 48
2019-06-18 17:00:00 25.6 8 Oeste 40 Sur 0 -- -- 43
2019-06-18 16:00:00 25.7 9 Sur 35 Noroeste 0 -- -- 45
2019-06-18 15:00:00 24.5 9 Noroeste 25 Este 0 -- -- 49
2019-06-18 14:00:00 22.7 6 Este 17 Noroeste 0 -- -- 58
2019-06-18 13:00:00 21.7 3 Este 9 Este 0 -- -- 63
2019-06-18 12:00:00 19.7 4 Nordeste 14 Noroeste 0 -- -- 69
2019-06-18 11:00:00 17 4 Noroeste 12 Noroeste 0 -- -- 80
2019-06-18 10:00:00 15.6 5 Norte 13 Noroeste 0 -- -- 85
2019-06-18 09:00:00 14.2 5 Noroeste 9 Noroeste 0 -- -- 91
2019-06-18 08:00:00 13.4 2 Nordeste 6 Este 0 -- -- 93
2019-06-18 07:00:00 13.6 4 Este 7 Este 0 -- -- 94
2019-06-18 06:00:00 14.3 2 Este 8 Oeste 0 -- -- 95
2019-06-18 05:00:00 14 0 Calma 4 Este 0 -- -- 96
2019-06-18 04:00:00 14 0 Calma 8 Noroeste 0 -- -- 95
2019-06-18 03:00:00 14.1 0 Calma 4 Noroeste 0 -- -- 93
2019-06-18 02:00:00 15.4 3 Sudoeste 6 Este 0 -- -- 91
2019-06-18 01:00:00 16.3 4 Sudeste 12 Este 0 -- -- 89
2019-06-18 00:00:00 16.6 0 Calma 9 Sudeste 0 -- -- 88
2019-06-17 23:00:00 17.1 4 Sudeste 12 Sudeste 0 -- -- 85
2019-06-17 22:00:00 17.7 6 Sudeste 15 Este 0 -- -- 83
2019-06-17 21:00:00 18.4 7 Sudeste 15 Sudeste 0 -- -- 81
2019-06-17 20:00:00 18.8 9 Sudeste 15 Sudeste 0 -- -- 80
2019-06-17 19:00:00 19.6 10 Sudeste 21 Este 0 -- -- 77
2019-06-17 18:00:00 20.6 8 Sudeste 19 Sudeste 0 -- -- 74
2019-06-17 17:00:00 21.7 8 Sudeste 16 Sudeste 0 -- -- 69
2019-06-17 16:00:00 21.8 9 Sudeste 18 Este 0 -- -- 68
2019-06-17 15:00:00 22.5 8 Este 15 Este 0 -- -- 66
2019-06-17 14:00:00 20.8 6 Este 16 Nordeste 0 -- -- 68
2019-06-17 13:00:00 18.9 5 Sudeste 15 Este 0 -- -- 71
2019-06-17 12:00:00 16.9 4 Sudeste 10 Este 0 -- -- 77
2019-06-17 11:00:00 15.8 4 Sudeste 9 Sudeste 0 -- -- 80
2019-06-17 10:00:00 15.3 4 Sudeste 6 Sudeste 0 -- -- 84
2019-06-17 09:00:00 14.8 4 Sur 8 Sudeste 0 -- -- 85
2019-06-17 08:00:00 14.5 4 Sudeste 9 Sudeste 0 -- -- 85
2019-06-17 07:00:00 14.5 5 Sudeste 8 Sudeste 0 -- -- 85
2019-06-17 06:00:00 14.8 4 Sudeste 7 Sudeste 0 -- -- 84
2019-06-17 05:00:00 15 3 Este 5 Este 0 -- -- 89
2019-06-17 04:00:00 15.3 0 Calma 6 Sudeste 0 -- -- 87
2019-06-17 03:00:00 15.6 0 Calma 3 Este 0 -- -- 85
2019-06-17 02:00:00 15.6 4 Sudeste 6 Sudeste 0 -- -- 86
2019-06-17 01:00:00 15.8 2 Sur 9 Este 0 -- -- 84
2019-06-17 00:00:00 15.9 5 Sudeste 13 Sudeste 0 -- -- 83
2019-06-16 23:00:00 16.3 8 Sudeste 22 Este 0 -- -- 82
2019-06-16 22:00:00 17.6 10 Este 21 Este 0 -- -- 76
2019-06-16 21:00:00 19.2 9 Este 21 Este 0 -- -- 71
2019-06-16 20:00:00 20.6 10 Este 21 Este 0 -- -- 66
2019-06-16 19:00:00 22 8 Nordeste 21 Este 0 -- -- 61
2019-06-16 18:00:00 22.9 7 Nordeste 22 Este 0 -- -- 58
2019-06-16 17:00:00 23.7 12 Este 25 Este 0 -- -- 54
2019-06-16 16:00:00 24.2 9 Este 22 Este 0 -- -- 52
2019-06-16 15:00:00 23.5 11 Este 21 Este 0 -- -- 50
2019-06-16 14:00:00 22.3 11 Este 20 Este 0 -- -- 52
2019-06-16 13:00:00 21.2 11 Este 17 Este 0 -- -- 56
2019-06-16 12:00:00 19.8 8 Este 14 Nordeste 0 -- -- 61
2019-06-16 11:00:00 17.8 4 Este 9 Este 0 -- -- 66
2019-06-16 10:00:00 15.5 3 Sudeste 8 Nordeste 0 -- -- 73
2019-06-16 09:00:00 13.5 2 Nordeste 5 Este 0 -- -- 80
2019-06-16 08:00:00 11.6 0 Calma 2 Nordeste 0 -- -- 86
2019-06-16 07:00:00 11.2 0 Calma 4 Nordeste 0 -- -- 88
2019-06-16 06:00:00 11.3 0 Calma 4 Oeste 0 -- -- 88
2019-06-16 05:00:00 12.9 0 Calma 5 Sur 0 -- -- 82
2019-06-16 04:00:00 13.5 0 Calma 7 Sudeste 0 -- -- 80
2019-06-16 03:00:00 13.8 4 Sudeste 9 Sudeste 0 -- -- 79
2019-06-16 02:00:00 13.9 3 Sudeste 10 Este 0 -- -- 78
2019-06-16 01:00:00 14 5 Este 13 Nordeste 0 -- -- 78
2019-06-16 00:00:00 14.2 5 Este 14 Este 0 -- -- 78
2019-06-15 23:00:00 14.4 6 Este 14 Este 0 -- -- 77
2019-06-15 22:00:00 14.8 9 Nordeste 21 Este 0 -- -- 75
2019-06-15 21:00:00 15.7 10 Nordeste 22 Este 0 -- -- 72
2019-06-15 20:00:00 17 13 Este 23 Este 0 -- -- 69
2019-06-15 19:00:00 17.6 12 Este 24 Nordeste 0 -- -- 64
2019-06-15 18:00:00 19 10 Este 24 Nordeste 0 -- -- 59
2019-06-15 17:00:00 19.2 9 Este 24 Este 0 -- -- 59
2019-06-15 16:00:00 21.1 10 Noroeste 26 Oeste 0 -- -- 45
2019-06-15 15:00:00 20.8 11 Noroeste 26 Noroeste 0 -- -- 45
2019-06-15 14:00:00 20.1 13 Noroeste 30 Noroeste 0 -- -- 44
2019-06-15 13:00:00 18.8 18 Noroeste 37 Norte 0 -- -- 47
2019-06-15 12:00:00 17.8 12 Noroeste 23 Noroeste 0 -- -- 51
2019-06-15 11:00:00 15.5 6 Noroeste 15 Noroeste 0 -- -- 67
2019-06-15 10:00:00 12.5 0 Calma 6 Este 0 -- -- 87
2019-06-15 09:00:00 11.2 3 Este 5 Noroeste 0 -- -- 94
2019-06-15 08:00:00 10.5 3 Noroeste 6 Sudeste 0 -- -- 95
2019-06-15 07:00:00 10.2 0 Calma 4 Sudeste 0 -- -- 96
2019-06-15 06:00:00 9.9 0 Calma 3 Sur 0 -- -- 95
2019-06-15 05:00:00 10.1 2 Este 6 Sudeste 0 -- -- 96
2019-06-15 04:00:00 9.9 0 Calma 6 Sudeste 0 -- -- 95
2019-06-15 03:00:00 10.4 0 Calma 4 Sudoeste 0 -- -- 92
2019-06-15 02:00:00 11.6 0 Calma 6 Noroeste 0 -- -- 91
2019-06-15 01:00:00 12 3 Noroeste 5 Noroeste 0 -- -- 90
2019-06-15 00:00:00 12.6 2 Oeste 4 Noroeste 0 -- -- 85
2019-06-14 23:00:00 13.1 2 Sudoeste 5 Sudeste 0 -- -- 83
2019-06-14 22:00:00 13.6 3 Sudeste 6 Sudeste 0 -- -- 81
2019-06-14 21:00:00 14 3 Sudeste 10 Este 0 -- -- 82
2019-06-14 20:00:00 14.9 7 Sudeste 14 Este 0 -- -- 76
2019-06-14 19:00:00 15.3 5 Este 14 Sudeste 0 -- -- 76
2019-06-14 18:00:00 16.1 8 Sudeste 15 Este 0 -- -- 71
2019-06-14 17:00:00 16.3 10 Sudeste 19 Sudeste 0 -- -- 69
2019-06-14 16:00:00 16.1 8 Este 19 Nordeste 0 -- -- 70
2019-06-14 15:00:00 16.9 9 Este 21 Noroeste 0 -- -- 68
2019-06-14 14:00:00 17.9 12 Este 20 Este 0 -- -- 62
2019-06-14 13:00:00 16.9 6 Este 16 Este 0 -- -- 65
2019-06-14 12:00:00 15.4 4 Sudeste 10 Este 0 -- -- 72
2019-06-14 11:00:00 13.8 2 Norte 7 Sudoeste 0 -- -- 78
2019-06-14 10:00:00 10.5 4 Este 8 Este 0 -- -- 90
2019-06-14 09:00:00 9.3 2 Nordeste 6 Oeste 0 -- -- 93
2019-06-14 08:00:00 9 2 Nordeste 6 Noroeste 0 -- -- 96
2019-06-14 07:00:00 8.7 3 Sudeste 6 Noroeste 0 -- -- 95
2019-06-14 06:00:00 8.7 0 Calma 6 Noroeste 0 -- -- 95
2019-06-14 05:00:00 8.8 0 Calma 4 Oeste 0 -- -- 95
2019-06-14 04:00:00 9.6 2 Oeste 4 Oeste 0 -- -- 94
2019-06-14 03:00:00 10.2 0 Calma 2 Oeste 0 -- -- 92
2019-06-14 02:00:00 10.9 0 Calma 2 Sudoeste 0 -- -- 91
2019-06-14 01:00:00 11.3 0 Calma 4 Sudoeste 0 -- -- 89
2019-06-14 00:00:00 12 0 Calma 5 Sur 0 -- -- 86
2019-06-13 23:00:00 12.4 2 Sudeste 11 Sudeste 0 -- -- 85
2019-06-13 22:00:00 12.7 3 Sudeste 8 Sur 0 -- -- 82
2019-06-13 21:00:00 12.8 5 Sudeste 11 Sudeste 0 -- -- 80
2019-06-13 20:00:00 13 4 Sudeste 10 Sudeste 0 -- -- 80
2019-06-13 19:00:00 13.2 4 Este 13 Sudeste 0 -- -- 80
2019-06-13 18:00:00 13.4 7 Sudeste 13 Sudeste 0 -- -- 76
2019-06-13 17:00:00 13.8 4 Este 15 Noroeste 0 -- -- 75
2019-06-13 16:00:00 14.7 6 Nordeste 22 Este 0 -- -- 71
2019-06-13 15:00:00 16.7 9 Este 19 Este 0 -- -- 61
2019-06-13 14:00:00 16.8 14 Este 20 Este 0 -- -- 60
2019-06-13 13:00:00 16 10 Este 15 Este 0 -- -- 62
2019-06-13 12:00:00 14.1 5 Sudeste 10 Este 0 -- -- 73
2019-06-13 11:00:00 12.6 2 Noroeste 5 Nordeste 0 -- -- 81
2019-06-13 10:00:00 11.5 2 Sudeste 4 Este 0 -- -- 87
2019-06-13 09:00:00 10.7 0 Calma 3 Este 0 -- -- 94
2019-06-13 08:00:00 10.3 2 Noroeste 3 Noroeste 0 -- -- 95
2019-06-13 07:00:00 9.9 0 Calma 0 Calma 0 -- -- 95
2019-06-13 06:00:00 10 0 Calma 2 Sudeste 0 -- -- 95
2019-06-13 05:00:00 10 0 Calma 2 Sudoeste 0 -- -- 95
2019-06-13 04:00:00 10.2 0 Calma 4 Oeste 0 -- -- 94
2019-06-13 03:00:00 10.3 0 Calma 3 Sur 0 -- -- 94
2019-06-13 02:00:00 10.4 0 Calma 2 Sudoeste 0 -- -- 94
2019-06-13 01:00:00 10.4 2 Oeste 6 Sur 0 -- -- 93
2019-06-13 00:00:00 10.6 4 Sur 12 Sudeste 0 -- -- 91
2019-06-12 23:00:00 11.7 6 Este 11 Sudeste 0 -- -- 84
2019-06-12 22:00:00 12.4 3 Este 14 Este 0 -- -- 74
2019-06-12 21:00:00 12.7 8 Sudeste 15 Sudeste 0 -- -- 72
2019-06-12 20:00:00 13.4 9 Este 18 Este 0 -- -- 72
2019-06-12 19:00:00 13.9 11 Sudeste 19 Este 0 -- -- 71
2019-06-12 18:00:00 15.3 10 Sudeste 21 Norte 0 -- -- 67
2019-06-12 17:00:00 16.9 10 Noroeste 25 Noroeste 0 -- -- 57
2019-06-12 16:00:00 17.9 5 Sudeste 17 Oeste 0 -- -- 49
2019-06-12 15:00:00 16.3 12 Noroeste 18 Noroeste 0 -- -- 53
2019-06-12 14:00:00 14.5 4 Noroeste 12 Noroeste 0 -- -- 62
2019-06-12 13:00:00 13.9 8 Noroeste 24 Noroeste 0 -- -- 61
2019-06-12 12:00:00 13.9 6 Noroeste 15 Oeste 0 -- -- 61
2019-06-12 11:00:00 12.6 4 Noroeste 15 Noroeste 0.2 -- -- 66
2019-06-12 10:00:00 12.2 6 Noroeste 23 Noroeste 0 -- -- 74
2019-06-12 09:00:00 9.7 9 Noroeste 15 Oeste 0 -- -- 85
2019-06-12 08:00:00 8.2 9 Oeste 14 Oeste 0 -- -- 90
2019-06-12 07:00:00 7.8 3 Oeste 8 Oeste 0 -- -- 93
2019-06-12 06:00:00 8 0 Calma 15 Sudoeste 0 -- -- 92
2019-06-12 05:00:00 7.9 9 Oeste 17 Noroeste 0 -- -- 91
2019-06-12 04:00:00 7 2 Este 7 Noroeste 0 -- -- 95
2019-06-12 03:00:00 7.5 0 Calma 10 Oeste 0 -- -- 92
2019-06-12 02:00:00 8.3 6 Oeste 9 Oeste 0 -- -- 92
2019-06-12 01:00:00 9 2 Sur 5 Sudoeste 0 -- -- 91
2019-06-12 00:00:00 9.9 4 Sudoeste 8 Oeste 0 -- -- 90
2019-06-11 23:00:00 10.7 0 Calma 4 Oeste 0 -- -- 90
2019-06-11 22:00:00 11.5 3 Sudoeste 16 Noroeste 0 -- -- 79
2019-06-11 21:00:00 13 9 Noroeste 21 Noroeste 0 -- -- 72
2019-06-11 20:00:00 13.4 8 Noroeste 23 Noroeste 0 -- -- 71
2019-06-11 19:00:00 14 10 Noroeste 21 Noroeste 0 -- -- 69
2019-06-11 18:00:00 13.9 8 Oeste 18 Noroeste 0 -- -- 69
2019-06-11 17:00:00 12.6 3 Este 28 Noroeste 0.4 -- -- 80
2019-06-11 16:00:00 13.3 4 Sudoeste 25 Noroeste 0 -- -- 76
2019-06-11 15:00:00 12.1 9 Oeste 26 Noroeste 0 -- -- 82
2019-06-11 14:00:00 12.4 7 Oeste 15 Noroeste 0 -- -- 82
2019-06-11 13:00:00 11.3 8 Oeste 19 Oeste 0.2 -- -- 86
2019-06-11 12:00:00 11.9 4 Este 11 Sudeste 0 -- -- 85
2019-06-11 11:00:00 10.7 3 Noroeste 8 Este 0.4 -- -- 89
2019-06-11 10:00:00 9.9 5 Oeste 14 Noroeste 0.8 -- -- 92
2019-06-11 09:00:00 9.3 2 Noroeste 6 Noroeste 2 -- -- 98
2019-06-11 08:00:00 9 0 Calma 4 Oeste 0 -- -- 98
2019-06-11 07:00:00 9.5 0 Calma 4 Noroeste 0.4 -- -- 98
2019-06-11 06:00:00 9.3 0 Calma 4 Oeste 0.6 -- -- 98
2019-06-11 05:00:00 9.7 0 Calma 4 Sudoeste 0.6 -- -- 98
2019-06-11 04:00:00 9.9 0 Calma 5 Oeste 2 -- -- 97
2019-06-11 03:00:00 9.9 0 Calma 3 Oeste 0.8 -- -- 96
2019-06-11 02:00:00 10.2 0 Calma 3 Sur 0.4 -- -- 94
2019-06-11 01:00:00 11 0 Calma 5 Oeste 0.4 -- -- 89
2019-06-11 00:00:00 11.2 0 Calma 2 Sudeste 0 -- -- 88
2019-06-10 23:00:00 11.4 0 Calma 4 Nordeste 0 -- -- 89
2019-06-10 22:00:00 12.2 0 Calma 10 Oeste 0 -- -- 80
2019-06-10 21:00:00 12.7 4 Oeste 16 Oeste 0 -- -- 75
2019-06-10 20:00:00 13.6 8 Noroeste 21 Noroeste 0 -- -- 71
2019-06-10 19:00:00 14.2 6 Noroeste 19 Noroeste 0 -- -- 69
2019-06-10 18:00:00 15.4 6 Sudeste 18 Sudoeste 0 -- -- 68
2019-06-10 17:00:00 16.4 11 Nordeste 22 Este 0 -- -- 61
2019-06-10 16:00:00 17.3 11 Nordeste 23 Nordeste 0 -- -- 59
2019-06-10 15:00:00 17.4 10 Este 23 Este 0 -- -- 60
2019-06-10 14:00:00 17.3 3 Norte 13 Noroeste 0 -- -- 54
2019-06-10 13:00:00 16.6 5 Noroeste 14 Noroeste 0 -- -- 55
2019-06-10 12:00:00 16 5 Noroeste 12 Noroeste 0 -- -- 58
2019-06-10 11:00:00 14 6 Noroeste 15 Noroeste 0 -- -- 74
2019-06-10 10:00:00 12 8 Noroeste 14 Noroeste 0 -- -- 84
2019-06-10 09:00:00 10.4 4 Noroeste 8 Noroeste 0 -- -- 92
2019-06-10 08:00:00 9.6 0 Calma 3 Noroeste 0 -- -- 94
2019-06-10 07:00:00 9.3 0 Calma 5 Noroeste 0 -- -- 94
2019-06-10 06:00:00 9.2 0 Calma 4 Noroeste 0 -- -- 95
2019-06-10 05:00:00 9.1 0 Calma 4 Oeste 0 -- -- 96
2019-06-10 04:00:00 9 0 Calma 3 Noroeste 0 -- -- 96
2019-06-10 03:00:00 9.1 0 Calma 2 Sudoeste 0 -- -- 95
2019-06-10 02:00:00 9.2 0 Calma 3 Sur 0 -- -- 95
2019-06-10 01:00:00 9.5 2 Oeste 3 Oeste 0 -- -- 93
2019-06-10 00:00:00 10.9 0 Calma 5 Sur 0 -- -- 89
2019-06-09 23:00:00 11.5 2 Sur 8 Sudeste 0 -- -- 88
2019-06-09 22:00:00 11.6 4 Sudeste 9 Sudeste 0 -- -- 87
2019-06-09 21:00:00 11.8 5 Sudeste 11 Sudeste 0 -- -- 88
2019-06-09 20:00:00 12 2 Sur 10 Este 0 -- -- 88
2019-06-09 19:00:00 11.9 8 Sudeste 13 Sudeste 0 -- -- 90
2019-06-09 18:00:00 12.2 4 Sudeste 17 Este 0 -- -- 88
2019-06-09 17:00:00 13.1 9 Este 15 Este 0 -- -- 82
2019-06-09 16:00:00 12.9 7 Sudeste 18 Sudeste 0 -- -- 82
2019-06-09 15:00:00 13 6 Este 24 Este 0 -- -- 84
2019-06-09 14:00:00 14.7 11 Este 23 Este 0 -- -- 75
2019-06-09 13:00:00 17 8 Este 15 Este 0 -- -- 70
2019-06-09 12:00:00 16.1 5 Norte 14 Nordeste 0 -- -- 68
2019-06-09 11:00:00 13.9 4 Noroeste 8 Noroeste 0 -- -- 81
2019-06-09 10:00:00 13.1 3 Noroeste 8 Noroeste 0 -- -- 84
2019-06-09 09:00:00 11.8 2 Este 4 Este 0 -- -- 93
2019-06-09 08:00:00 11.4 0 Calma 2 Este 0 -- -- 95
2019-06-09 07:00:00 11.3 0 Calma 4 Oeste 0 -- -- 94
2019-06-09 06:00:00 11.5 0 Calma 4 Sudeste 0 -- -- 93
2019-06-09 05:00:00 11.5 2 Sur 4 Sudoeste 0 -- -- 94
2019-06-09 04:00:00 11.6 2 Sur 8 Sudeste 0 -- -- 93
2019-06-09 03:00:00 11.7 3 Sur 8 Sudeste 0 -- -- 93
2019-06-09 02:00:00 11.7 3 Sudeste 6 Sudeste 0 -- -- 94
2019-06-09 01:00:00 11.7 3 Sudeste 6 Sur 0 -- -- 95
2019-06-09 00:00:00 11.7 2 Sur 3 Sudeste 0 -- -- 95
2019-06-08 23:00:00 11.7 2 Sur 9 Sudeste 0 -- -- 94
2019-06-08 22:00:00 11.9 5 Sudeste 12 Sudeste 0 -- -- 92
2019-06-08 21:00:00 12 2 Sudeste 12 Este 0.4 -- -- 93
2019-06-08 20:00:00 12.7 3 Este 16 Sudeste 0 -- -- 86
2019-06-08 19:00:00 13 7 Sudeste 17 Este 0 -- -- 82
2019-06-08 18:00:00 13.6 6 Este 21 Este 0 -- -- 76
2019-06-08 17:00:00 14.3 10 Este 22 Este 0 -- -- 72
2019-06-08 16:00:00 15.1 9 Nordeste 21 Este 0 -- -- 69
2019-06-08 15:00:00 16.2 9 Nordeste 22 Este 0 -- -- 63
2019-06-08 14:00:00 16.8 8 Este 19 Nordeste 0 -- -- 60
2019-06-08 13:00:00 16.2 5 Nordeste 15 Este 0 -- -- 60
2019-06-08 12:00:00 14.4 5 Sudeste 12 Este 0 -- -- 71
2019-06-08 11:00:00 10.6 3 Este 9 Este 0 -- -- 84
2019-06-08 10:00:00 7.6 3 Oeste 8 Noroeste 0 -- -- 93
2019-06-08 09:00:00 6.7 3 Noroeste 10 Noroeste 0 -- -- 96
2019-06-08 08:00:00 6.5 2 Sur 6 Oeste 0 -- -- 97
2019-06-08 07:00:00 6.6 0 Calma 5 Sur 0.2 -- -- 96
2019-06-08 06:00:00 6.8 3 Oeste 8 Noroeste 0 -- -- 96
2019-06-08 05:00:00 7.1 2 Oeste 5 Sur 0 -- -- 97
2019-06-08 04:00:00 6.9 0 Calma 4 Noroeste 0 -- -- 97
2019-06-08 03:00:00 6.8 0 Calma 4 Noroeste 0 -- -- 95
2019-06-08 02:00:00 7.6 2 Oeste 4 Oeste 0 -- -- 94
2019-06-08 01:00:00 8.6 3 Oeste 4 Oeste 0 -- -- 92
2019-06-08 00:00:00 9.7 0 Calma 5 Oeste 0 -- -- 91
2019-06-07 23:00:00 10.1 2 Sur 7 Sudoeste 0 -- -- 88
2019-06-07 22:00:00 10.7 6 Oeste 11 Oeste 0 -- -- 81
2019-06-07 21:00:00 11.7 2 Sur 27 Oeste 0 -- -- 82
2019-06-07 20:00:00 14.2 3 Noroeste 15 Noroeste 0 -- -- 65
2019-06-07 19:00:00 15.4 6 Noroeste 18 Noroeste 0 -- -- 58
2019-06-07 18:00:00 14.3 12 Noroeste 28 Noroeste 0 -- -- 60
2019-06-07 17:00:00 14.9 4 Este 17 Noroeste 0 -- -- 54
2019-06-07 16:00:00 14.5 3 Sur 30 Oeste 0 -- -- 62
2019-06-07 15:00:00 15.8 10 Norte 28 Sur 0 -- -- 53
2019-06-07 14:00:00 15.4 11 Sudoeste 29 Noroeste 0 -- -- 56
2019-06-07 13:00:00 13.2 6 Noroeste 21 Sudeste 0 -- -- 63
2019-06-07 12:00:00 11.8 9 Noroeste 25 Noroeste 0.2 -- -- 72
2019-06-07 11:00:00 11.9 4 Sudeste 19 Nordeste 0 -- -- 67
2019-06-07 10:00:00 10.8 3 Norte 24 Este 0 -- -- 78
2019-06-07 09:00:00 10.6 4 Sur 17 Sur 0 -- -- 77
2019-06-07 08:00:00 10 4 Nordeste 16 Noroeste 0 -- -- 76
2019-06-07 07:00:00 9.6 4 Sur 13 Sudeste 0 -- -- 79
2019-06-07 06:00:00 9.6 3 Sur 18 Sur 0 -- -- 80
2019-06-07 05:00:00 9 5 Sur 14 Sudoeste 0.2 -- -- 86
2019-06-07 04:00:00 9.4 4 Sur 28 Sur 0.2 -- -- 78
2019-06-07 03:00:00 9.6 5 Sur 16 Sudoeste 0.2 -- -- 77
2019-06-07 02:00:00 10.4 5 Sur 17 Sur 0 -- -- 79
2019-06-07 01:00:00 11.7 9 Sudoeste 26 Sur 0 -- -- 66
2019-06-07 00:00:00 11.5 7 Sudoeste 24 Sur 0 -- -- 71
2019-06-06 23:00:00 11.2 5 Sur 31 Sudoeste 0.4 -- -- 81
2019-06-06 22:00:00 12.2 6 Sudoeste 20 Sur 0 -- -- 72
2019-06-06 21:00:00 13.5 9 Sur 28 Sudeste 0 -- -- 66
2019-06-06 20:00:00 13.2 6 Oeste 13 Oeste 1 -- -- 94
2019-06-06 19:00:00 13.8 5 Sudoeste 17 Oeste 1.4 -- -- 81
2019-06-06 18:00:00 14.4 9 Oeste 19 Oeste 0.2 -- -- 80
2019-06-06 17:00:00 15 9 Oeste 15 Oeste 0.2 -- -- 74
2019-06-06 16:00:00 17.6 5 Oeste 18 Sudeste 0 -- -- 59
2019-06-06 15:00:00 18.1 9 Sudeste 23 Sudeste 0 -- -- 52
2019-06-06 14:00:00 16.7 3 Sudoeste 12 Sudeste 0 -- -- 65
2019-06-06 13:00:00 17.2 4 Este 15 Este 0 -- -- 55
2019-06-06 12:00:00 14.6 5 Nordeste 12 Este 0 -- -- 81
2019-06-06 11:00:00 11 0 Calma 5 Noroeste 0 -- -- 86
2019-06-06 10:00:00 9.5 3 Noroeste 6 Oeste 0 -- -- 92
2019-06-06 09:00:00 7.7 4 Noroeste 8 Oeste 0 -- -- 99
2019-06-06 08:00:00 6.9 0 Calma 5 Sudeste 0 -- -- 98
2019-06-06 07:00:00 6.7 0 Calma 4 Sudoeste 0 -- -- 98
2019-06-06 06:00:00 6.6 3 Oeste 8 Oeste 0 -- -- 98
2019-06-06 05:00:00 6.6 2 Sudoeste 4 Sudoeste 0 -- -- 98
2019-06-06 04:00:00 6.5 0 Calma 4 Oeste 0 -- -- 98
2019-06-06 03:00:00 6.9 0 Calma 4 Oeste 0 -- -- 97
2019-06-06 02:00:00 7.8 3 Oeste 5 Oeste 0 -- -- 95
2019-06-06 01:00:00 8.9 4 Oeste 11 Oeste 0 -- -- 93
2019-06-06 00:00:00 9.1 6 Oeste 11 Noroeste 0 -- -- 90
2019-06-05 23:00:00 9.9 2 Sudoeste 9 Oeste 0 -- -- 91
2019-06-05 22:00:00 10.1 4 Sudoeste 8 Oeste 0 -- -- 94
2019-06-05 21:00:00 11 4 Oeste 7 Oeste 0.2 -- -- 92
2019-06-05 20:00:00 11.2 5 Oeste 9 Oeste 0 -- -- 89
2019-06-05 19:00:00 11.8 3 Sudoeste 15 Noroeste 0.2 -- -- 87
2019-06-05 18:00:00 12.5 2 Sudeste 8 Noroeste 0 -- -- 83
2019-06-05 17:00:00 12.3 3 Nordeste 12 Este 0 -- -- 85
2019-06-05 16:00:00 10.7 6 Noroeste 37 Oeste 1.2 -- -- 88
2019-06-05 15:00:00 11.3 5 Noroeste 36 Noroeste 0.2 -- -- 85
2019-06-05 14:00:00 12.4 10 Noroeste 26 Sudoeste 0.8 -- -- 82
2019-06-05 13:00:00 12 2 Sudeste 10 Este 0 -- -- 89
2019-06-05 12:00:00 10.4 6 Sur 33 Noroeste 1 -- -- 90
2019-06-05 11:00:00 12.9 6 Noroeste 15 Noroeste 0 -- -- 81
2019-06-05 10:00:00 11.2 0 Calma 6 Noroeste 0.4 -- -- 92
2019-06-05 09:00:00 10.9 0 Calma 6 Sudoeste 0 -- -- 94
2019-06-05 08:00:00 10.1 3 Sudoeste 6 Oeste 0.2 -- -- 96
2019-06-05 07:00:00 9.8 4 Sudoeste 7 Oeste 0 -- -- 97
2019-06-05 06:00:00 9.7 3 Oeste 6 Oeste 0 -- -- 97
2019-06-05 05:00:00 10.3 0 Calma 5 Oeste 0 -- -- 98
2019-06-05 04:00:00 10.3 2 Sur 5 Sudoeste 0 -- -- 97
2019-06-05 03:00:00 10.7 0 Calma 5 Sudoeste 1.2 -- -- 96
2019-06-05 02:00:00 11.3 0 Calma 5 Oeste 0 -- -- 96
2019-06-05 01:00:00 11.6 3 Sudoeste 5 Sudoeste 0 -- -- 96
2019-06-05 00:00:00 12.1 0 Calma 3 Sudoeste 0 -- -- 97
2019-06-04 23:00:00 12.2 0 Calma 3 Oeste 0 -- -- 96
2019-06-04 22:00:00 12.6 2 Sur 4 Sur 0 -- -- 94
2019-06-04 21:00:00 12.9 2 Este 8 Oeste 1.2 -- -- 91
2019-06-04 20:00:00 14.4 5 Oeste 16 Noroeste 1 -- -- 82
2019-06-04 19:00:00 16.7 10 Noroeste 24 Sudeste 0 -- -- 66
2019-06-04 18:00:00 18.7 9 Noroeste 24 Noroeste 0 -- -- 58
2019-06-04 17:00:00 20 8 Noroeste 24 Noroeste 0 -- -- 48
2019-06-04 16:00:00 19.6 5 Noroeste 25 Noroeste 0 -- -- 54
2019-06-04 15:00:00 18.6 13 Noroeste 24 Noroeste 0 -- -- 56
2019-06-04 14:00:00 17.3 8 Noroeste 26 Noroeste 0.2 -- -- 69
2019-06-04 13:00:00 16.1 6 Noroeste 39 Noroeste 0 -- -- 77
2019-06-04 12:00:00 18.9 11 Noroeste 31 Noroeste 0 -- -- 66
2019-06-04 11:00:00 19.5 12 Noroeste 36 Noroeste 0 -- -- 61
2019-06-04 10:00:00 20.1 9 Noroeste 22 Noroeste 0 -- -- 56
2019-06-04 09:00:00 18.2 4 Noroeste 22 Oeste 0 -- -- 61
2019-06-04 08:00:00 14.3 5 Este 7 Este 0 -- -- 91
2019-06-04 07:00:00 14.5 0 Calma 9 Oeste 0 -- -- 92
2019-06-04 06:00:00 15.6 0 Calma 4 Sudeste 0 -- -- 91
2019-06-04 05:00:00 16.2 0 Calma 3 Oeste 0 -- -- 89
2019-06-04 04:00:00 16.6 2 Sur 4 Sudeste 0 -- -- 88
2019-06-04 03:00:00 17 0 Calma 4 Oeste 0 -- -- 87
2019-06-04 02:00:00 17.1 0 Calma 4 Este 0 -- -- 87
2019-06-04 01:00:00 17.1 2 Este 5 Sudeste 0 -- -- 87
2019-06-04 00:00:00 17.3 2 Sudeste 9 Sudeste 0 -- -- 86
2019-06-03 23:00:00 17.5 5 Sudeste 15 Este 0 -- -- 85
2019-06-03 22:00:00 17.9 4 Este 14 Sudeste 0 -- -- 84
2019-06-03 21:00:00 18.6 6 Este 14 Este 0 -- -- 82
2019-06-03 20:00:00 20 5 Nordeste 17 Este 0 -- -- 76
2019-06-03 19:00:00 21.4 6 Este 21 Este 0 -- -- 72
2019-06-03 18:00:00 22 10 Sudeste 20 Sudeste 0 -- -- 70
2019-06-03 17:00:00 22.1 9 Este 19 Este 0 -- -- 68
2019-06-03 16:00:00 22.5 12 Este 25 Este 0 -- -- 66
2019-06-03 15:00:00 23.5 11 Nordeste 28 Este 0 -- -- 62
2019-06-03 14:00:00 23.5 13 Este 27 Este 0 -- -- 65
2019-06-03 13:00:00 24 11 Este 18 Este 0 -- -- 57
2019-06-03 12:00:00 22 8 Sudeste 15 Este 0 -- -- 62
2019-06-03 11:00:00 19.5 7 Sudeste 10 Sudeste 0 -- -- 72
2019-06-03 10:00:00 17.3 2 Nordeste 6 Este 0 -- -- 80
2019-06-03 09:00:00 16.1 4 Noroeste 6 Noroeste 0 -- -- 84
2019-06-03 08:00:00 14.9 0 Calma 4 Sudeste 0 -- -- 89
2019-06-03 07:00:00 14.8 2 Sur 9 Oeste 0 -- -- 88
2019-06-03 06:00:00 14.9 0 Calma 6 Noroeste 0 -- -- 87
2019-06-03 05:00:00 15 2 Oeste 5 Sudeste 0 -- -- 86
2019-06-03 04:00:00 15.6 0 Calma 6 Sur 0 -- -- 83
2019-06-03 03:00:00 15.7 2 Sudeste 8 Sudeste 0 -- -- 82
2019-06-03 02:00:00 16.3 2 Sudoeste 8 Sudeste 0 -- -- 79
2019-06-03 01:00:00 16.8 2 Sur 5 Sudeste 0 -- -- 76
2019-06-03 00:00:00 17.5 3 Sudeste 13 Sudeste 0 -- -- 73
2019-06-02 23:00:00 18.1 4 Sur 9 Sudeste 0 -- -- 69
2019-06-02 22:00:00 19 3 Este 14 Este 0 -- -- 65
2019-06-02 21:00:00 20 6 Nordeste 18 Este 0 -- -- 63
2019-06-02 20:00:00 21.3 9 Sudeste 20 Sudeste 0 -- -- 63
2019-06-02 19:00:00 23.1 10 Este 21 Este 0 -- -- 58
2019-06-02 18:00:00 24.2 13 Este 28 Este 0 -- -- 54
2019-06-02 17:00:00 25.3 15 Sudeste 35 Noroeste 0 -- -- 53
2019-06-02 16:00:00 29.3 10 Noroeste 23 Noroeste 0 -- -- 27
2019-06-02 15:00:00 28.8 9 Noroeste 22 Noroeste 0 -- -- 30
2019-06-02 14:00:00 28.3 14 Noroeste 31 Noroeste 0 -- -- 30
2019-06-02 13:00:00 27.8 7 Noroeste 14 Norte 0 -- -- 35
2019-06-02 12:00:00 23.4 3 Nordeste 8 Nordeste 0 -- -- 55
2019-06-02 11:00:00 20.8 3 Nordeste 8 Este 0 -- -- 64
2019-06-02 10:00:00 18.3 3 Este 6 Este 0 -- -- 72
2019-06-02 09:00:00 14.6 3 Nordeste 8 Noroeste 0 -- -- 85
2019-06-02 08:00:00 12.6 0 Calma 7 Noroeste 0 -- -- 92
2019-06-02 07:00:00 11.9 2 Oeste 4 Noroeste 0 -- -- 92
2019-06-02 06:00:00 12.4 0 Calma 4 Noroeste 0 -- -- 89
2019-06-02 05:00:00 13.2 0 Calma 4 Oeste 0 -- -- 87
2019-06-02 04:00:00 13.9 2 Sur 5 Noroeste 0 -- -- 84
2019-06-02 03:00:00 14.6 0 Calma 3 Oeste 0 -- -- 80
2019-06-02 02:00:00 15.6 2 Noroeste 4 Oeste 0 -- -- 77
2019-06-02 01:00:00 17 2 Noroeste 4 Noroeste 0 -- -- 72
2019-06-02 00:00:00 18.5 0 Calma 5 Noroeste 0 -- -- 68
2019-06-01 23:00:00 20.5 0 Calma 3 Oeste 0 -- -- 61
2019-06-01 22:00:00 23.2 0 Calma 12 Sur 0 -- -- 52
2019-06-01 21:00:00 26.5 6 Sur 20 Norte 0 -- -- 47
2019-06-01 20:00:00 29 4 Este 19 Norte 0 -- -- 44
2019-06-01 19:00:00 29.8 9 Norte 20 Este 0 -- -- 41
2019-06-01 18:00:00 30.8 8 Este 21 Nordeste 0 -- -- 39
2019-06-01 17:00:00 31 11 Nordeste 27 Norte 0 -- -- 39
2019-06-01 16:00:00 32.2 14 Este 25 Nordeste 0 -- -- 38
2019-06-01 15:00:00 32.4 14 Este 26 Este 0 -- -- 38
2019-06-01 14:00:00 32.5 7 Sudeste 17 Este 0 -- -- 35
2019-06-01 13:00:00 30.3 4 Este 8 Este 0 -- -- 37
2019-06-01 12:00:00 26.4 4 Sudeste 8 Norte 0 -- -- 47
2019-06-01 11:00:00 22.3 3 Sudeste 6 Este 0 -- -- 51
2019-06-01 10:00:00 18.2 3 Nordeste 6 Norte 0 -- -- 65
2019-06-01 09:00:00 15.2 2 Nordeste 4 Norte 0 -- -- 72
2019-06-01 08:00:00 12.6 0 Calma 3 Nordeste 0 -- -- 84
2019-06-01 07:00:00 11.4 0 Calma 3 Oeste 0 -- -- 85
2019-06-01 06:00:00 12.1 0 Calma 4 Noroeste 0 -- -- 84
2019-06-01 05:00:00 12.7 0 Calma 5 Noroeste 0 -- -- 80
2019-06-01 04:00:00 13.6 0 Calma 3 Oeste 0 -- -- 77
2019-06-01 03:00:00 14.6 0 Calma 3 Noroeste 0 -- -- 73
2019-06-01 02:00:00 15.7 3 Noroeste 5 Noroeste 0 -- -- 69
2019-06-01 01:00:00 17 0 Calma 3 Noroeste 0 -- -- 64
2019-06-01 00:00:00 18.6 0 Calma 5 Noroeste 0 -- -- 58
2019-05-31 23:00:00 20.8 0 Calma 4 Oeste 0 -- -- 50
2019-05-31 22:00:00 23.6 0 Calma 9 Sur 0 -- -- 44
2019-05-31 21:00:00 27.6 4 Sur 13 Nordeste 0 -- -- 35
2019-05-31 20:00:00 31.2 7 Nordeste 15 Nordeste 0 -- -- 27
2019-05-31 19:00:00 32 7 Este 18 Nordeste 0 -- -- 27
2019-05-31 18:00:00 32.3 9 Este 19 Este 0 -- -- 30
2019-05-31 17:00:00 33 9 Este 24 Este 0 -- -- 26
2019-05-31 16:00:00 33 11 Sudeste 22 Sur 0 -- -- 24
2019-05-31 15:00:00 32.9 11 Este 18 Este 0 -- -- 25
2019-05-31 14:00:00 32 8 Este 12 Este 0 -- -- 25
2019-05-31 13:00:00 29.4 5 Este 10 Sudeste 0 -- -- 37
2019-05-31 12:00:00 25.4 3 Sudeste 6 Este 0 -- -- 49
2019-05-31 11:00:00 20.8 3 Noroeste 7 Este 0 -- -- 64
2019-05-31 10:00:00 17.4 2 Nordeste 6 Este 0 -- -- 74
2019-05-31 09:00:00 14.2 2 Nordeste 4 Nordeste 0 -- -- 83
2019-05-31 08:00:00 11.7 0 Calma 2 Este 0 -- -- 95
2019-05-31 07:00:00 10.7 0 Calma 2 Noroeste 0 -- -- 94
2019-05-31 06:00:00 11.4 0 Calma 3 Noroeste 0 -- -- 93
2019-05-31 05:00:00 12 0 Calma 5 Oeste 0 -- -- 92
2019-05-31 04:00:00 12.8 3 Noroeste 5 Noroeste 0 -- -- 90
2019-05-31 03:00:00 13.6 0 Calma 2 Sudoeste 0 -- -- 88
2019-05-31 02:00:00 14.6 0 Calma 3 Noroeste 0 -- -- 83
2019-05-31 01:00:00 15.9 0 Calma 4 Noroeste 0 -- -- 79
2019-05-31 00:00:00 17.6 0 Calma 3 Noroeste 0 -- -- 73
2019-05-30 23:00:00 20 0 Calma 12 Sudeste 0 -- -- 64
2019-05-30 22:00:00 22.8 7 Sudeste 14 Sudeste 0 -- -- 55
2019-05-30 21:00:00 25.7 5 Sudeste 22 Este 0 -- -- 48
2019-05-30 20:00:00 27.7 7 Este 18 Este 0 -- -- 46
2019-05-30 19:00:00 28.7 9 Este 20 Nordeste 0 -- -- 44
2019-05-30 18:00:00 29.3 11 Este 21 Nordeste 0 -- -- 40
2019-05-30 17:00:00 29.8 8 Nordeste 19 Nordeste 0 -- -- 42
2019-05-30 16:00:00 29.3 10 Nordeste 21 Este 0 -- -- 40
2019-05-30 15:00:00 28.8 10 Este 19 Este 0 -- -- 40
2019-05-30 14:00:00 27.6 10 Este 16 Este 0 -- -- 43
2019-05-30 13:00:00 25.7 6 Sudeste 12 Este 0 -- -- 46
2019-05-30 12:00:00 22.6 6 Este 9 Este 0 -- -- 57
2019-05-30 11:00:00 18.7 3 Norte 8 Noroeste 0 -- -- 67
2019-05-30 10:00:00 15.5 2 Nordeste 6 Nordeste 0 -- -- 76
2019-05-30 09:00:00 12.8 2 Norte 5 Nordeste 0 -- -- 86
2019-05-30 08:00:00 10.2 0 Calma 2 Este 0 -- -- 97
2019-05-30 07:00:00 9.3 0 Calma 4 Noroeste 0 -- -- 95
2019-05-30 06:00:00 9.7 0 Calma 5 Noroeste 0 -- -- 94
2019-05-30 05:00:00 10.2 2 Noroeste 4 Noroeste 0 -- -- 94
2019-05-30 04:00:00 10.7 0 Calma 2 Sudeste 0 -- -- 92
2019-05-30 03:00:00 11.3 0 Calma 2 Sudoeste 0 -- -- 91
2019-05-30 02:00:00 12.2 0 Calma 4 Noroeste 0 -- -- 88
2019-05-30 01:00:00 12.6 0 Calma 6 Este 0 -- -- 85
2019-05-30 00:00:00 14.3 0 Calma 12 Sur 0 -- -- 80
2019-05-29 23:00:00 16.3 7 Sudeste 18 Sudeste 0 -- -- 73
2019-05-29 22:00:00 18.2 10 Sudeste 16 Sudeste 0 -- -- 68
2019-05-29 21:00:00 20.4 7 Sudeste 20 Este 0 -- -- 63
2019-05-29 20:00:00 22.7 11 Nordeste 26 Este 0 -- -- 57
2019-05-29 19:00:00 23.5 14 Este 26 Nordeste 0 -- -- 53
2019-05-29 18:00:00 24.2 12 Nordeste 21 Norte 0 -- -- 50
2019-05-29 17:00:00 23.8 9 Nordeste 22 Nordeste 0 -- -- 53
2019-05-29 16:00:00 23.4 12 Nordeste 23 Nordeste 0 -- -- 54
2019-05-29 15:00:00 22.7 10 Este 25 Este 0 -- -- 51
2019-05-29 14:00:00 22 10 Nordeste 24 Nordeste 0 -- -- 53
2019-05-29 13:00:00 20.9 11 Este 23 Este 0 -- -- 52
2019-05-29 12:00:00 18.4 6 Sudeste 13 Sudeste 0 -- -- 60
2019-05-29 11:00:00 15.3 3 Este 11 Nordeste 0 -- -- 68
2019-05-29 10:00:00 12.3 3 Este 6 Este 0 -- -- 77
2019-05-29 09:00:00 9.7 3 Este 5 Este 0 -- -- 86
2019-05-29 08:00:00 7.5 2 Este 4 Este 0 -- -- 94
2019-05-29 07:00:00 7.4 0 Calma 6 Oeste 0 -- -- 92
2019-05-29 06:00:00 7.7 3 Oeste 6 Sudoeste 0 -- -- 93
2019-05-29 05:00:00 7.8 3 Oeste 4 Oeste 0 -- -- 93
2019-05-29 04:00:00 8.3 0 Calma 3 Noroeste 0 -- -- 92
2019-05-29 03:00:00 8.2 0 Calma 3 Sudoeste 0 -- -- 92
2019-05-29 02:00:00 8.7 0 Calma 3 Nordeste 0 -- -- 91
2019-05-29 01:00:00 9.7 0 Calma 4 Noroeste 0 -- -- 87
2019-05-29 00:00:00 11 2 Sudoeste 12 Sudeste 0 -- -- 83
2019-05-28 23:00:00 12.3 5 Sudeste 11 Sur 0 -- -- 77
2019-05-28 22:00:00 13.6 4 Sur 15 Nordeste 0 -- -- 71
2019-05-28 21:00:00 16 7 Nordeste 13 Nordeste 0 -- -- 58
2019-05-28 20:00:00 17.4 5 Norte 17 Este 0 -- -- 54
2019-05-28 19:00:00 18 6 Nordeste 21 Este 0 -- -- 52
2019-05-28 18:00:00 17 9 Este 19 Este 0 -- -- 56
2019-05-28 17:00:00 17.9 9 Nordeste 22 Este 0 -- -- 56
2019-05-28 16:00:00 18.9 8 Este 24 Este 0 -- -- 52
2019-05-28 15:00:00 18.1 5 Este 15 Sudeste 0 -- -- 52
2019-05-28 14:00:00 17.5 9 Sudoeste 17 Sudoeste 0 -- -- 55
2019-05-28 13:00:00 16.3 2 Noroeste 11 Noroeste 0 -- -- 57
2019-05-28 12:00:00 15.5 4 Este 9 Este 0 -- -- 63
2019-05-28 11:00:00 13 4 Este 8 Sudeste 0 -- -- 80
2019-05-28 10:00:00 11 3 Noroeste 9 Noroeste 0 -- -- 84
2019-05-28 09:00:00 9.1 4 Este 6 Este 0 -- -- 92
2019-05-28 08:00:00 8.2 3 Noroeste 5 Noroeste 0 -- -- 93
2019-05-28 07:00:00 7.4 0 Calma 2 Sudoeste 0 -- -- 95
2019-05-28 06:00:00 7.3 0 Calma 5 Oeste 0 -- -- 94
2019-05-28 05:00:00 7.9 0 Calma 2 Sudeste 0 -- -- 92
2019-05-28 04:00:00 8.9 0 Calma 3 Oeste 0 -- -- 90
2019-05-28 03:00:00 10.3 0 Calma 4 Sudoeste 0 -- -- 85
2019-05-28 02:00:00 11.9 0 Calma 6 Sudeste 0 -- -- 82
2019-05-28 01:00:00 12.6 4 Sudeste 11 Sudeste 0 -- -- 79
2019-05-28 00:00:00 12.6 4 Sudeste 10 Sur 0 -- -- 78
2019-05-27 23:00:00 12.8 3 Sur 10 Sudeste 0 -- -- 78
2019-05-27 22:00:00 13.4 5 Sudeste 14 Este 0 -- -- 76
2019-05-27 21:00:00 14.6 5 Este 17 Este 0 -- -- 73
2019-05-27 20:00:00 15.4 8 Este 22 Sudeste 0 -- -- 72
2019-05-27 19:00:00 16.3 13 Sudeste 24 Sudeste 0 -- -- 70
2019-05-27 18:00:00 17 10 Norte 21 Este 0 -- -- 67
2019-05-27 17:00:00 18.5 10 Este 23 Este 0 -- -- 65
2019-05-27 16:00:00 17.5 6 Sudeste 15 Sudeste 0 -- -- 71
2019-05-27 15:00:00 17.7 9 Nordeste 20 Este 0 -- -- 70
2019-05-27 14:00:00 18 5 Norte 14 Oeste 0 -- -- 72
2019-05-27 13:00:00 16.8 9 Oeste 21 Oeste 0 -- -- 76
2019-05-27 12:00:00 15.3 4 Sudeste 7 Este 0 -- -- 91
2019-05-27 11:00:00 14.3 2 Este 5 Noroeste 0 -- -- 94
2019-05-27 10:00:00 13.2 3 Noroeste 8 Oeste 0.2 -- -- 95
2019-05-27 09:00:00 13.1 3 Noroeste 4 Noroeste 0 -- -- 92
2019-05-27 08:00:00 13 2 Este 5 Oeste 0 -- -- 92
2019-05-27 07:00:00 12.9 2 Oeste 5 Oeste 0 -- -- 91
2019-05-27 06:00:00 12.9 4 Sudeste 6 Sudeste 0 -- -- 88
2019-05-27 05:00:00 13.1 3 Oeste 5 Oeste 0 -- -- 87
2019-05-27 04:00:00 13.2 0 Calma 4 Noroeste 0 -- -- 86
2019-05-27 03:00:00 13.3 0 Calma 6 Oeste 0 -- -- 85
2019-05-27 02:00:00 13.8 3 Oeste 6 Oeste 0 -- -- 83
2019-05-27 01:00:00 14.1 3 Noroeste 6 Oeste 0 -- -- 82
2019-05-27 00:00:00 14.2 3 Oeste 12 Sudeste 0 -- -- 80
2019-05-26 23:00:00 14.2 8 Sudeste 14 Sudeste 0 -- -- 79
2019-05-26 22:00:00 14.8 9 Sudeste 15 Sudeste 0 -- -- 80
2019-05-26 21:00:00 16 5 Sudeste 18 Este 0 -- -- 76
2019-05-26 20:00:00 17.7 12 Este 21 Este 0 -- -- 71
2019-05-26 19:00:00 19 13 Este 25 Este 0 -- -- 68
2019-05-26 18:00:00 21.1 14 Este 25 Este 0 -- -- 64
2019-05-26 17:00:00 22.6 12 Este 19 Este 0 -- -- 58
2019-05-26 16:00:00 21.6 7 Sudeste 20 Este 0 -- -- 57
2019-05-26 15:00:00 20.5 6 Este 19 Este 0 -- -- 62
2019-05-26 14:00:00 18.3 4 Nordeste 11 Sudeste 0 -- -- 66
2019-05-26 13:00:00 16.1 4 Este 10 Este 0 -- -- 73
2019-05-26 12:00:00 13.5 4 Nordeste 9 Este 0 -- -- 79
2019-05-26 11:00:00 12.7 2 Este 6 Noroeste 0 -- -- 81
2019-05-26 10:00:00 12.1 4 Noroeste 9 Noroeste 0 -- -- 84
2019-05-26 09:00:00 11.8 5 Noroeste 9 Noroeste 0 -- -- 84
2019-05-26 08:00:00 11.7 2 Oeste 9 Noroeste 0 -- -- 85
2019-05-26 07:00:00 11.7 3 Sudeste 8 Sudeste 0 -- -- 85
2019-05-26 06:00:00 11.7 0 Calma 0 Calma 0 -- -- 87
2019-05-26 05:00:00 11.6 0 Calma 0 Calma 0 -- -- 86
2019-05-26 04:00:00 11.6 0 Calma 6 Oeste 0 -- -- 85
2019-05-26 03:00:00 11.4 3 Noroeste 6 Noroeste 0 -- -- 85
2019-05-26 02:00:00 11.3 5 Oeste 7 Oeste 0 -- -- 86
2019-05-26 01:00:00 11 0 Calma 5 Oeste 0 -- -- 89
2019-05-26 00:00:00 11.8 0 Calma 12 Sudeste 0 -- -- 85
2019-05-25 23:00:00 13.1 6 Sudeste 15 Sudeste 0 -- -- 80
2019-05-25 22:00:00 14.2 7 Sudeste 17 Este 0 -- -- 74
2019-05-25 21:00:00 16.2 6 Este 20 Nordeste 0 -- -- 68
2019-05-25 20:00:00 18.3 9 Norte 20 Nordeste 0 -- -- 61
2019-05-25 19:00:00 19.3 9 Nordeste 23 Este 0 -- -- 60
2019-05-25 18:00:00 20 7 Este 28 Este 0 -- -- 58
2019-05-25 17:00:00 20.2 8 Nordeste 28 Nordeste 0 -- -- 58
2019-05-25 16:00:00 20.1 9 Este 25 Este 0 -- -- 53
2019-05-25 15:00:00 20.1 6 Este 22 Este 0 -- -- 54
2019-05-25 14:00:00 19.7 8 Este 17 Este 0 -- -- 53
2019-05-25 13:00:00 18.6 11 Este 18 Este 0 -- -- 52
2019-05-25 12:00:00 17.6 12 Sudeste 21 Este 0 -- -- 53
2019-05-25 11:00:00 16.7 9 Este 15 Este 0 -- -- 62
2019-05-25 10:00:00 14 3 Norte 6 Noroeste 0 -- -- 78
2019-05-25 09:00:00 11.5 2 Este 6 Oeste 0 -- -- 89
2019-05-25 08:00:00 10.4 3 Noroeste 5 Noroeste 0 -- -- 91
2019-05-25 07:00:00 10.4 0 Calma 4 Sur 0 -- -- 92
2019-05-25 06:00:00 10.6 0 Calma 6 Oeste 0 -- -- 91
2019-05-25 05:00:00 11.6 0 Calma 5 Este 0 -- -- 91
2019-05-25 04:00:00 12 0 Calma 3 Sudoeste 0 -- -- 89
2019-05-25 03:00:00 12.3 2 Sur 6 Sur 0 -- -- 88
2019-05-25 02:00:00 13 3 Sur 9 Sur 0 -- -- 85
2019-05-25 01:00:00 13.4 4 Sudeste 6 Sudeste 0 -- -- 80
2019-05-25 00:00:00 13.5 2 Sur 10 Sudeste 0 -- -- 78
2019-05-24 23:00:00 13.7 5 Sudeste 15 Oeste 0 -- -- 75
2019-05-24 22:00:00 14.1 6 Sudeste 21 Nordeste 0 -- -- 70
2019-05-24 21:00:00 15.7 7 Este 20 Norte 0 -- -- 68
2019-05-24 20:00:00 17 9 Norte 22 Este 0 -- -- 61
2019-05-24 19:00:00 17.5 8 Este 19 Este 0 -- -- 62
2019-05-24 18:00:00 17.9 7 Nordeste 21 Este 0 -- -- 59
2019-05-24 17:00:00 18.1 4 Sudoeste 13 Este 0 -- -- 60
2019-05-24 16:00:00 17.2 5 Sudeste 12 Este 0 -- -- 60
2019-05-24 15:00:00 16.1 5 Este 15 Sudeste 0 -- -- 68
2019-05-24 14:00:00 15.3 5 Norte 15 Oeste 0 -- -- 70
2019-05-24 13:00:00 15.3 2 Nordeste 17 Oeste 0 -- -- 65
2019-05-24 12:00:00 14.8 5 Noroeste 12 Noroeste 0 -- -- 65
2019-05-24 11:00:00 13.9 5 Noroeste 8 Noroeste 0 -- -- 72
2019-05-24 10:00:00 12.2 3 Nordeste 7 Noroeste 0 -- -- 80
2019-05-24 09:00:00 11.4 0 Calma 4 Noroeste 0 -- -- 85
2019-05-24 08:00:00 10.1 0 Calma 5 Sudeste 0 -- -- 90
2019-05-24 07:00:00 9.7 2 Sur 5 Este 0 -- -- 92
2019-05-24 06:00:00 9.6 0 Calma 5 Sudeste 0 -- -- 92
2019-05-24 05:00:00 9.5 0 Calma 5 Oeste 0 -- -- 92
2019-05-24 04:00:00 8.9 0 Calma 4 Oeste 0 -- -- 92
2019-05-24 03:00:00 9.4 3 Noroeste 4 Noroeste 0 -- -- 89
2019-05-24 02:00:00 10.6 0 Calma 5 Sudoeste 0 -- -- 85
2019-05-24 01:00:00 10.8 0 Calma 5 Sudoeste 0 -- -- 86
2019-05-24 00:00:00 10.7 0 Calma 5 Oeste 0 -- -- 85
2019-05-23 23:00:00 12 3 Oeste 8 Oeste 0 -- -- 78
2019-05-23 22:00:00 13.6 4 Oeste 19 Oeste 0 -- -- 73
2019-05-23 21:00:00 14.9 12 Noroeste 21 Noroeste 0 -- -- 68
2019-05-23 20:00:00 16.5 9 Noroeste 22 Noroeste 0 -- -- 68
2019-05-23 19:00:00 16.6 8 Oeste 24 Oeste 0 -- -- 68
2019-05-23 18:00:00 18.1 8 Norte 24 Este 0 -- -- 68
2019-05-23 17:00:00 19.7 11 Este 19 Noroeste 0 -- -- 67
2019-05-23 16:00:00 20 11 Noroeste 26 Nordeste 0 -- -- 62
2019-05-23 15:00:00 22.1 6 Norte 17 Noroeste 0 -- -- 53
2019-05-23 14:00:00 21.9 10 Noroeste 20 Noroeste 0 -- -- 51
2019-05-23 13:00:00 20.5 7 Oeste 20 Oeste 0 -- -- 52
2019-05-23 12:00:00 19.1 7 Oeste 13 Noroeste 0 -- -- 64
2019-05-23 11:00:00 17.2 2 Sudeste 7 Nordeste 0 -- -- 70
2019-05-23 10:00:00 14.1 3 Este 7 Este 0 -- -- 82
2019-05-23 09:00:00 11.8 0 Calma 14 Oeste 0 -- -- 89
2019-05-23 08:00:00 10.7 2 Este 3 Este 0 -- -- 93
2019-05-23 07:00:00 10.5 0 Calma 5 Noroeste 0 -- -- 92
2019-05-23 06:00:00 10.9 0 Calma 2 Sudoeste 0 -- -- 91
2019-05-23 05:00:00 11.3 3 Noroeste 5 Noroeste 0 -- -- 90
2019-05-23 04:00:00 11.8 0 Calma 6 Noroeste 0 -- -- 87
2019-05-23 03:00:00 12.6 0 Calma 4 Noroeste 0 -- -- 86
2019-05-23 02:00:00 13.4 0 Calma 3 Oeste 0 -- -- 81
2019-05-23 01:00:00 14.4 0 Calma 5 Oeste 0 -- -- 77
2019-05-23 00:00:00 15.9 0 Calma 5 Noroeste 0 -- -- 70
2019-05-22 23:00:00 16.8 3 Noroeste 5 Noroeste 0 -- -- 69
2019-05-22 22:00:00 18.2 2 Sur 9 Sudoeste 0 -- -- 62
2019-05-22 21:00:00 20.3 4 Sudoeste 17 Norte 0 -- -- 56
2019-05-22 20:00:00 22.6 6 Norte 22 Norte 0 -- -- 48
2019-05-22 19:00:00 23.4 9 Nordeste 19 Nordeste 0 -- -- 50
2019-05-22 18:00:00 23.5 9 Este 24 Este 0 -- -- 57
2019-05-22 17:00:00 23.7 10 Nordeste 27 Este 0 -- -- 60
2019-05-22 16:00:00 24.2 9 Este 22 Este 0 -- -- 59
2019-05-22 15:00:00 23.9 10 Este 20 Este 0 -- -- 57
2019-05-22 14:00:00 24.1 11 Este 19 Este 0 -- -- 56
2019-05-22 13:00:00 22.2 6 Este 11 Este 0 -- -- 60
2019-05-22 12:00:00 18.2 5 Este 8 Este 0 -- -- 68
2019-05-22 11:00:00 13.9 0 Calma 6 Nordeste 0 -- -- 84
2019-05-22 10:00:00 11.2 0 Calma 5 Oeste 0 -- -- 92
2019-05-22 09:00:00 10.5 3 Noroeste 9 Noroeste 0 -- -- 93
2019-05-22 08:00:00 10.5 3 Oeste 7 Oeste 0 -- -- 94
2019-05-22 07:00:00 10.8 3 Noroeste 8 Oeste 0 -- -- 93
2019-05-22 06:00:00 11.1 0 Calma 8 Oeste 0 -- -- 93
2019-05-22 05:00:00 11.5 2 Oeste 9 Noroeste 0 -- -- 91
2019-05-22 04:00:00 11.9 4 Noroeste 9 Oeste 0 -- -- 90
2019-05-22 03:00:00 12.5 3 Noroeste 8 Este 0 -- -- 89
2019-05-22 02:00:00 12.7 3 Este 7 Sudeste 0 -- -- 89
2019-05-22 01:00:00 12.5 3 Este 9 Sur 0 -- -- 91
2019-05-22 00:00:00 12.4 4 Sudeste 14 Sudeste 0 -- -- 88
2019-05-21 23:00:00 13.7 6 Sudeste 17 Sudeste 0 -- -- 83
2019-05-21 22:00:00 15 7 Sudeste 12 Este 0 -- -- 77
2019-05-21 21:00:00 17.1 4 Este 17 Este 0 -- -- 68
2019-05-21 20:00:00 18.6 8 Este 19 Este 0 -- -- 63
2019-05-21 19:00:00 19.2 9 Este 24 Este 0 -- -- 60
2019-05-21 18:00:00 19.9 10 Nordeste 21 Este 0 -- -- 61
2019-05-21 17:00:00 19.9 11 Nordeste 22 Nordeste 0 -- -- 62
2019-05-21 16:00:00 20.6 9 Este 23 Este 0 -- -- 56
2019-05-21 15:00:00 20.4 10 Este 23 Este 0 -- -- 57
2019-05-21 14:00:00 19.7 8 Nordeste 22 Este 0 -- -- 57
2019-05-21 13:00:00 19.1 9 Nordeste 21 Nordeste 0 -- -- 59
2019-05-21 12:00:00 17 4 Este 9 Este -- -- -- 69
2019-05-21 11:00:00 12.6 3 Nordeste 6 Sudeste -- -- -- 83
2019-05-21 10:00:00 9.2 3 Este 7 Oeste 0 -- -- 96
2019-05-21 09:00:00 8.2 6 Noroeste 14 Noroeste 0 -- -- 97
2019-05-21 08:00:00 8 0 Calma 5 Sur 0 -- -- 97
2019-05-21 07:00:00 7.4 2 Este 6 Oeste 0 -- -- 97
2019-05-21 06:00:00 7.6 0 Calma 2 Sur 0 -- -- 96
2019-05-21 05:00:00 7.8 0 Calma 3 Sudeste 0 -- -- 96
2019-05-21 04:00:00 7.9 0 Calma 3 Noroeste 0 -- -- 95
2019-05-21 03:00:00 8.2 0 Calma 3 Noroeste 0 -- -- 94
2019-05-21 02:00:00 9 0 Calma 3 Oeste 0 -- -- 92
2019-05-21 01:00:00 10 0 Calma 2 Noroeste 0 -- -- 90
2019-05-21 00:00:00 10.9 0 Calma 5 Sudeste 0 -- -- 88